createdAt,value
2022-12-18T00:00:24.006Z,4.10
2022-12-18T00:05:28.776Z,4.18
2022-12-18T00:10:30.814Z,4.15
2022-12-18T00:15:35.546Z,4.47
2022-12-18T00:20:39.294Z,4.95
2022-12-18T00:25:41.274Z,3.90
2022-12-18T00:30:43.269Z,4.03
2022-12-18T00:35:45.376Z,4.50
2022-12-18T00:40:47.411Z,3.67
2022-12-18T00:45:49.402Z,3.70
2022-12-18T00:50:52.380Z,4.13
2022-12-18T00:55:54.338Z,3.80
2022-12-18T01:00:56.363Z,3.15
2022-12-18T01:05:58.555Z,3.95
2022-12-18T01:11:00.736Z,3.30
2022-12-18T01:16:02.993Z,3.78
2022-12-18T01:21:09.802Z,3.72
2022-12-18T01:26:15.917Z,3.40
2022-12-18T01:31:30.309Z,3.60
2022-12-18T01:36:38.322Z,3.95
2022-12-18T01:41:59.461Z,3.58
2022-12-18T01:47:01.582Z,3.58
2022-12-18T01:52:03.641Z,3.55
2022-12-18T01:57:05.686Z,3.58
2022-12-18T02:02:08.793Z,3.88
2022-12-18T02:07:17.039Z,3.78
2022-12-18T02:12:31.907Z,3.13
2022-12-18T02:17:43.085Z,3.45
2022-12-18T02:23:05.962Z,3.03
2022-12-18T02:28:13.896Z,3.25
2022-12-18T02:33:16.921Z,3.28
2022-12-18T02:38:19.371Z,3.17
2022-12-18T02:43:24.239Z,3.13
2022-12-18T02:48:33.803Z,2.88
2022-12-18T02:53:46.685Z,3.33
2022-12-18T02:59:01.295Z,3.15
2022-12-18T03:04:37.787Z,3.55
2022-12-18T03:09:45.146Z,3.50
2022-12-18T03:14:51.521Z,2.70
2022-12-18T03:19:57.104Z,3.00
2022-12-18T03:25:01.736Z,3.00
2022-12-18T03:30:09.818Z,2.80
2022-12-18T03:35:18.764Z,3.17
2022-12-18T03:40:32.650Z,3.00
2022-12-18T03:45:39.484Z,2.97
2022-12-18T03:50:59.033Z,3.03
2022-12-18T03:56:03.228Z,2.92
2022-12-18T04:01:13.345Z,3.33
2022-12-18T04:06:18.056Z,2.78
2022-12-18T04:11:20.873Z,2.97
2022-12-18T04:16:23.664Z,2.70
2022-12-18T04:21:29.245Z,2.55
2022-12-18T04:26:31.350Z,2.70
2022-12-18T04:31:52.115Z,2.60
2022-12-18T04:36:55.123Z,3.00
2022-12-18T04:42:01.432Z,2.38
2022-12-18T04:47:04.237Z,2.22
2022-12-18T04:52:06.207Z,2.42
2022-12-18T04:57:09.340Z,2.45
2022-12-18T05:02:11.756Z,2.90
2022-12-18T05:07:13.865Z,2.28
2022-12-18T05:12:15.980Z,2.30
2022-12-18T05:17:18.151Z,2.50
2022-12-18T05:22:20.196Z,1.83
2022-12-18T05:27:22.555Z,2.60
2022-12-18T05:32:24.631Z,2.88
2022-12-18T05:37:26.671Z,2.30
2022-12-18T05:42:28.713Z,2.25
2022-12-18T05:47:30.832Z,2.22
2022-12-18T05:52:32.918Z,2.72
2022-12-18T05:57:34.935Z,2.35
2022-12-18T06:02:37.149Z,2.53
2022-12-18T06:07:39.322Z,3.20
2022-12-18T06:12:41.310Z,2.78
2022-12-18T06:17:44.126Z,2.38
2022-12-18T06:22:46.736Z,2.92
2022-12-18T06:27:49.423Z,2.47
2022-12-18T06:32:56.339Z,2.47
2022-12-18T06:37:58.997Z,2.63
2022-12-18T06:43:01.062Z,2.47
2022-12-18T06:48:03.414Z,2.53
2022-12-18T06:53:06.458Z,2.78
2022-12-18T06:58:09.785Z,2.05
2022-12-18T07:03:13.528Z,2.92
2022-12-18T07:08:15.629Z,2.60
2022-12-18T07:13:18.371Z,2.15
2022-12-18T07:18:20.614Z,2.33
2022-12-18T07:23:22.600Z,2.90
2022-12-18T07:28:24.844Z,2.30
2022-12-18T07:33:26.901Z,2.63
2022-12-18T07:38:29.362Z,2.70
2022-12-18T07:43:32.190Z,2.20
2022-12-18T07:48:34.888Z,2.38
2022-12-18T07:53:37.922Z,3.13
2022-12-18T07:58:40.218Z,2.65
2022-12-18T08:03:42.568Z,2.70
2022-12-18T08:08:44.835Z,2.80
2022-12-18T08:13:46.845Z,2.78
2022-12-18T08:18:49.583Z,2.53
2022-12-18T08:23:55.835Z,2.72
2022-12-18T08:28:59.507Z,2.60
2022-12-18T08:34:01.536Z,2.13
2022-12-18T08:39:03.895Z,2.65
2022-12-18T08:44:24.615Z,2.25
2022-12-18T08:49:26.689Z,2.17
2022-12-18T08:54:28.982Z,1.88
2022-12-18T08:59:31.091Z,2.13
2022-12-18T09:04:33.063Z,2.30
2022-12-18T09:09:35.061Z,2.50
2022-12-18T09:14:37.360Z,2.85
2022-12-18T09:19:39.371Z,2.08
2022-12-18T09:24:41.435Z,1.90
2022-12-18T09:29:43.431Z,2.40
2022-12-18T09:34:45.346Z,1.83
2022-12-18T09:39:47.346Z,1.60
2022-12-18T09:44:54.226Z,1.92
2022-12-18T09:50:21.972Z,2.40
2022-12-18T09:55:37.483Z,2.72
2022-12-18T10:00:40.033Z,1.65
2022-12-18T10:06:12.051Z,2.15
2022-12-18T10:11:41.848Z,1.92
2022-12-18T10:17:22.893Z,1.70
2022-12-18T10:22:43.607Z,2.13
2022-12-18T10:27:46.104Z,2.30
2022-12-18T10:32:48.238Z,1.60
2022-12-18T10:38:21.581Z,2.00
2022-12-18T10:43:35.262Z,2.33
2022-12-18T10:48:41.525Z,2.10
2022-12-18T10:53:44.114Z,2.00
2022-12-18T10:58:58.111Z,2.13
2022-12-18T11:04:03.601Z,1.75
2022-12-18T11:09:19.735Z,2.33
2022-12-18T11:14:30.191Z,2.22
2022-12-18T11:19:36.609Z,1.88
2022-12-18T11:24:38.636Z,2.42
2022-12-18T11:29:46.346Z,2.35
2022-12-18T11:34:59.151Z,1.88
2022-12-18T11:40:13.108Z,2.67
2022-12-18T11:45:15.099Z,2.08
2022-12-18T11:50:26.591Z,1.83
2022-12-18T11:55:46.894Z,2.38
2022-12-18T12:01:06.537Z,1.73
2022-12-18T12:06:26.053Z,1.73
2022-12-18T12:11:44.653Z,1.50
2022-12-18T12:16:49.395Z,1.50
2022-12-18T12:22:17.456Z,1.63
2022-12-18T12:27:56.784Z,1.40
2022-12-18T12:33:13.551Z,1.00
2022-12-18T12:38:27.534Z,1.20
2022-12-18T12:43:35.181Z,1.70
2022-12-18T12:48:48.745Z,1.55
2022-12-18T12:53:52.900Z,2.58
2022-12-18T12:59:19.719Z,1.60
2022-12-18T13:04:41.944Z,1.35
2022-12-18T13:10:20.574Z,1.40
2022-12-18T13:15:31.427Z,1.80
2022-12-18T13:20:46.630Z,1.58
2022-12-18T13:25:52.893Z,2.60
2022-12-18T13:30:57.747Z,2.88
2022-12-18T13:36:23.728Z,3.30
2022-12-18T13:41:29.137Z,4.32
2022-12-18T13:46:44.847Z,3.92
2022-12-18T13:51:52.805Z,4.97
2022-12-18T13:56:54.975Z,4.30
2022-12-18T14:02:06.642Z,4.40
2022-12-18T14:07:13.949Z,3.85
2022-12-18T14:12:38.121Z,4.55
2022-12-18T14:17:40.572Z,3.75
2022-12-18T14:22:48.201Z,3.95
2022-12-18T14:28:02.908Z,4.20
2022-12-18T14:33:15.957Z,2.65
2022-12-18T14:38:23.390Z,2.85
2022-12-18T14:43:27.941Z,2.30
2022-12-18T14:48:40.554Z,3.10
2022-12-18T14:53:52.095Z,2.50
2022-12-18T14:58:56.477Z,2.60
2022-12-18T15:03:59.977Z,2.58
2022-12-18T15:09:21.537Z,1.90
2022-12-18T15:14:31.046Z,2.20
2022-12-18T15:19:41.767Z,1.60
2022-12-18T15:24:43.827Z,1.97
2022-12-18T15:30:01.236Z,2.13
2022-12-18T15:35:25.988Z,2.05
2022-12-18T15:40:28.016Z,2.10
2022-12-18T15:45:30.104Z,1.50
2022-12-18T15:50:32.147Z,2.10
2022-12-18T15:55:56.534Z,1.63
2022-12-18T16:01:02.951Z,2.67
2022-12-18T16:06:05.035Z,2.22
2022-12-18T16:11:07.177Z,2.25
2022-12-18T16:16:09.758Z,3.03
2022-12-18T16:21:12.151Z,2.53
2022-12-18T16:26:14.239Z,2.28
2022-12-18T16:31:16.229Z,2.70
2022-12-18T16:36:18.225Z,2.42
2022-12-18T16:41:32.463Z,2.75
2022-12-18T16:46:34.599Z,2.47
2022-12-18T16:51:36.764Z,2.15
2022-12-18T16:56:39.434Z,1.98
2022-12-18T17:01:42.009Z,2.65
2022-12-18T17:06:48.482Z,2.83
2022-12-18T17:11:50.637Z,2.60
2022-12-18T17:17:19.713Z,2.55
2022-12-18T17:22:15.963Z,2.55
2022-12-18T17:27:17.999Z,2.15
2022-12-18T17:32:20.233Z,2.70
2022-12-18T17:37:22.346Z,2.65
2022-12-18T17:42:24.327Z,2.47
2022-12-18T17:47:26.331Z,2.85
2022-12-18T17:52:28.527Z,2.63
2022-12-18T17:57:30.590Z,2.20
2022-12-18T18:02:32.846Z,2.42
2022-12-18T18:07:35.864Z,3.10
2022-12-18T18:12:56.659Z,2.60
2022-12-18T18:18:00.658Z,2.08
2022-12-18T18:23:02.639Z,2.75
2022-12-18T18:28:04.961Z,2.35
2022-12-18T18:33:11.864Z,2.40
2022-12-18T18:38:14.225Z,2.95
2022-12-18T18:43:16.207Z,2.40
2022-12-18T18:48:18.198Z,2.47
2022-12-18T18:53:20.217Z,2.78
2022-12-18T18:58:22.283Z,2.40
2022-12-18T19:03:25.424Z,2.63
2022-12-18T19:08:30.603Z,2.30
2022-12-18T19:13:34.218Z,2.63
2022-12-18T19:18:38.433Z,2.83
2022-12-18T19:23:41.343Z,3.30
2022-12-18T19:28:44.684Z,2.83
2022-12-18T19:33:48.264Z,3.50
2022-12-18T19:38:51.141Z,3.00
2022-12-18T19:43:54.699Z,2.85
2022-12-18T19:49:00.265Z,3.15
2022-12-18T19:54:03.139Z,3.25
2022-12-18T19:59:05.481Z,3.35
2022-12-18T20:04:07.838Z,2.85
2022-12-18T20:09:11.042Z,2.85
2022-12-18T20:14:14.672Z,3.53
2022-12-18T20:19:21.463Z,3.38
2022-12-18T20:24:23.671Z,2.42
2022-12-18T20:29:26.315Z,3.30
2022-12-18T20:34:28.422Z,2.90
2022-12-18T20:39:30.484Z,2.95
2022-12-18T20:44:33.614Z,3.33
2022-12-18T20:49:35.643Z,3.13
2022-12-18T20:54:39.572Z,3.70
2022-12-18T20:59:46.316Z,3.78
2022-12-18T21:04:50.581Z,3.75
2022-12-18T21:09:52.662Z,4.50
2022-12-18T21:14:54.872Z,5.88
2022-12-18T21:19:57.012Z,4.43
2022-12-18T21:24:59.076Z,4.53
2022-12-18T21:30:01.191Z,4.72
2022-12-18T21:35:04.058Z,3.40
2022-12-18T21:40:06.740Z,4.63
2022-12-18T21:45:09.123Z,3.70
2022-12-18T21:50:11.134Z,4.40
2022-12-18T21:55:13.175Z,3.38
2022-12-18T22:00:19.232Z,3.83
2022-12-18T22:05:21.757Z,3.15
2022-12-18T22:10:23.904Z,3.55
2022-12-18T22:15:25.928Z,2.90
2022-12-18T22:20:29.926Z,3.38
2022-12-18T22:25:32.174Z,2.92
2022-12-18T22:30:36.390Z,2.53
2022-12-18T22:35:38.384Z,2.95
2022-12-18T22:40:40.685Z,2.80
2022-12-18T22:45:47.305Z,3.00
2022-12-18T22:50:51.124Z,2.67
2022-12-18T22:56:02.050Z,2.88
2022-12-18T23:01:05.080Z,2.92
2022-12-18T23:06:09.330Z,2.83
2022-12-18T23:11:12.516Z,2.20
2022-12-18T23:16:17.080Z,2.33
2022-12-18T23:21:20.714Z,2.55
2022-12-18T23:26:25.250Z,2.63
2022-12-18T23:31:30.286Z,2.25
2022-12-18T23:36:35.877Z,2.10
2022-12-18T23:41:48.064Z,1.92
2022-12-18T23:46:50.182Z,2.00
2022-12-18T23:51:54.975Z,2.05
2022-12-18T23:56:56.981Z,1.63
